sensor_id;sensor_type;location;lat;lon;timestamp;P1;durP1;ratioP1;P2;durP2;ratioP2
15996;SDS011;8103;51.340;12.326;2022-10-31T00:01:25;9.68;;;6.95;;
15996;SDS011;8103;51.340;12.326;2022-10-31T00:04:04;9.20;;;6.20;;
15996;SDS011;8103;51.340;12.326;2022-10-31T00:06:32;10.70;;;5.75;;
15996;SDS011;8103;51.340;12.326;2022-10-31T00:09:00;10.27;;;6.45;;
15996;SDS011;8103;51.340;12.326;2022-10-31T00:11:29;10.18;;;6.55;;
15996;SDS011;8103;51.340;12.326;2022-10-31T00:13:56;10.85;;;5.72;;
15996;SDS011;8103;51.340;12.326;2022-10-31T00:16:25;12.32;;;6.28;;
15996;SDS011;8103;51.340;12.326;2022-10-31T00:18:56;12.02;;;6.28;;
15996;SDS011;8103;51.340;12.326;2022-10-31T00:21:26;7.45;;;4.95;;
15996;SDS011;8103;51.340;12.326;2022-10-31T00:23:56;9.52;;;6.10;;
15996;SDS011;8103;51.340;12.326;2022-10-31T00:26:28;8.43;;;5.80;;
15996;SDS011;8103;51.340;12.326;2022-10-31T00:28:58;11.95;;;6.07;;
15996;SDS011;8103;51.340;12.326;2022-10-31T00:31:26;9.45;;;6.70;;
15996;SDS011;8103;51.340;12.326;2022-10-31T00:33:53;8.95;;;6.32;;
15996;SDS011;8103;51.340;12.326;2022-10-31T00:36:20;7.40;;;5.63;;
15996;SDS011;8103;51.340;12.326;2022-10-31T00:38:47;13.35;;;5.93;;
15996;SDS011;8103;51.340;12.326;2022-10-31T00:41:16;12.68;;;6.15;;
15996;SDS011;8103;51.340;12.326;2022-10-31T00:43:43;9.80;;;5.50;;
15996;SDS011;8103;51.340;12.326;2022-10-31T00:46:12;11.18;;;6.28;;
15996;SDS011;8103;51.340;12.326;2022-10-31T00:48:39;7.00;;;5.68;;
15996;SDS011;8103;51.340;12.326;2022-10-31T00:51:06;8.32;;;5.25;;
15996;SDS011;8103;51.340;12.326;2022-10-31T00:53:34;6.93;;;5.43;;
15996;SDS011;8103;51.340;12.326;2022-10-31T00:56:01;9.18;;;5.38;;
15996;SDS011;8103;51.340;12.326;2022-10-31T00:58:29;9.23;;;5.00;;
15996;SDS011;8103;51.340;12.326;2022-10-31T01:00:56;8.77;;;5.35;;
15996;SDS011;8103;51.340;12.326;2022-10-31T01:03:24;8.10;;;5.40;;
15996;SDS011;8103;51.340;12.326;2022-10-31T01:05:57;5.97;;;4.55;;
15996;SDS011;8103;51.340;12.326;2022-10-31T01:08:34;6.10;;;4.13;;
15996;SDS011;8103;51.340;12.326;2022-10-31T01:11:04;11.23;;;5.93;;
15996;SDS011;8103;51.340;12.326;2022-10-31T01:13:42;7.45;;;4.55;;
15996;SDS011;8103;51.340;12.326;2022-10-31T01:16:10;7.88;;;5.30;;
15996;SDS011;8103;51.340;12.326;2022-10-31T01:18:43;11.50;;;5.05;;
15996;SDS011;8103;51.340;12.326;2022-10-31T01:21:24;8.93;;;5.78;;
15996;SDS011;8103;51.340;12.326;2022-10-31T01:23:54;8.73;;;5.50;;
15996;SDS011;8103;51.340;12.326;2022-10-31T01:26:23;8.90;;;5.00;;
15996;SDS011;8103;51.340;12.326;2022-10-31T01:28:54;9.98;;;5.75;;
15996;SDS011;8103;51.340;12.326;2022-10-31T01:31:30;7.93;;;5.55;;
15996;SDS011;8103;51.340;12.326;2022-10-31T01:34:01;12.40;;;7.03;;
15996;SDS011;8103;51.340;12.326;2022-10-31T01:36:34;9.30;;;5.47;;
15996;SDS011;8103;51.340;12.326;2022-10-31T01:39:04;7.63;;;5.25;;
15996;SDS011;8103;51.340;12.326;2022-10-31T01:41:35;12.07;;;6.22;;
15996;SDS011;8103;51.340;12.326;2022-10-31T01:52:21;23.05;;;6.55;;
15996;SDS011;8103;51.340;12.326;2022-10-31T01:55:05;9.48;;;5.78;;
15996;SDS011;8103;51.340;12.326;2022-10-31T01:57:45;10.25;;;6.15;;
15996;SDS011;8103;51.340;12.326;2022-10-31T02:00:19;11.35;;;7.32;;
15996;SDS011;8103;51.340;12.326;2022-10-31T02:02:48;12.82;;;5.80;;
15996;SDS011;8103;51.340;12.326;2022-10-31T02:05:19;8.60;;;5.53;;
15996;SDS011;8103;51.340;12.326;2022-10-31T02:07:55;8.75;;;5.28;;
15996;SDS011;8103;51.340;12.326;2022-10-31T02:10:31;7.50;;;5.32;;
15996;SDS011;8103;51.340;12.326;2022-10-31T02:13:03;11.18;;;5.95;;
15996;SDS011;8103;51.340;12.326;2022-10-31T02:15:33;11.38;;;6.43;;
15996;SDS011;8103;51.340;12.326;2022-10-31T02:18:04;8.90;;;5.80;;
15996;SDS011;8103;51.340;12.326;2022-10-31T02:26:51;7.95;;;4.95;;
15996;SDS011;8103;51.340;12.326;2022-10-31T02:29:45;8.98;;;5.80;;
15996;SDS011;8103;51.340;12.326;2022-10-31T02:35:18;11.48;;;6.65;;
15996;SDS011;8103;51.340;12.326;2022-10-31T02:38:07;11.23;;;6.32;;
15996;SDS011;8103;51.340;12.326;2022-10-31T02:41:03;7.03;;;5.97;;
15996;SDS011;8103;51.340;12.326;2022-10-31T02:44:20;5.35;;;4.47;;
15996;SDS011;8103;51.340;12.326;2022-10-31T02:49:53;9.60;;;4.57;;
15996;SDS011;8103;51.340;12.326;2022-10-31T02:52:37;5.70;;;5.15;;
15996;SDS011;8103;51.340;12.326;2022-10-31T02:57:54;7.72;;;5.43;;
15996;SDS011;8103;51.340;12.326;2022-10-31T03:00:29;8.18;;;5.53;;
15996;SDS011;8103;51.340;12.326;2022-10-31T03:06:03;8.30;;;5.38;;
15996;SDS011;8103;51.340;12.326;2022-10-31T03:08:50;8.35;;;6.18;;
15996;SDS011;8103;51.340;12.326;2022-10-31T03:11:38;11.98;;;5.93;;
15996;SDS011;8103;51.340;12.326;2022-10-31T03:14:43;6.35;;;5.60;;
15996;SDS011;8103;51.340;12.326;2022-10-31T03:17:26;9.43;;;5.75;;
15996;SDS011;8103;51.340;12.326;2022-10-31T03:20:03;8.35;;;5.85;;
15996;SDS011;8103;51.340;12.326;2022-10-31T03:22:36;9.10;;;6.13;;
15996;SDS011;8103;51.340;12.326;2022-10-31T03:25:07;9.85;;;7.28;;
15996;SDS011;8103;51.340;12.326;2022-10-31T03:27:35;12.27;;;7.72;;
15996;SDS011;8103;51.340;12.326;2022-10-31T03:30:06;10.73;;;6.13;;
15996;SDS011;8103;51.340;12.326;2022-10-31T03:32:35;11.45;;;6.63;;
15996;SDS011;8103;51.340;12.326;2022-10-31T03:35:13;10.65;;;6.28;;
15996;SDS011;8103;51.340;12.326;2022-10-31T03:37:46;7.07;;;6.38;;
15996;SDS011;8103;51.340;12.326;2022-10-31T03:40:16;10.13;;;7.07;;
15996;SDS011;8103;51.340;12.326;2022-10-31T03:43:01;7.13;;;6.18;;
15996;SDS011;8103;51.340;12.326;2022-10-31T03:45:39;8.98;;;6.25;;
15996;SDS011;8103;51.340;12.326;2022-10-31T03:48:15;13.52;;;7.78;;
15996;SDS011;8103;51.340;12.326;2022-10-31T03:51:00;11.15;;;6.90;;
15996;SDS011;8103;51.340;12.326;2022-10-31T03:53:50;11.23;;;6.35;;
15996;SDS011;8103;51.340;12.326;2022-10-31T03:56:38;9.68;;;5.50;;
15996;SDS011;8103;51.340;12.326;2022-10-31T03:59:17;11.77;;;6.40;;
15996;SDS011;8103;51.340;12.326;2022-10-31T04:02:00;7.65;;;5.90;;
15996;SDS011;8103;51.340;12.326;2022-10-31T04:04:34;7.40;;;5.88;;
15996;SDS011;8103;51.340;12.326;2022-10-31T04:07:03;8.73;;;6.28;;
15996;SDS011;8103;51.340;12.326;2022-10-31T04:09:35;6.25;;;5.47;;
15996;SDS011;8103;51.340;12.326;2022-10-31T04:12:08;8.77;;;5.93;;
15996;SDS011;8103;51.340;12.326;2022-10-31T04:14:38;10.27;;;6.43;;
15996;SDS011;8103;51.340;12.326;2022-10-31T04:17:09;10.52;;;5.78;;
15996;SDS011;8103;51.340;12.326;2022-10-31T04:19:43;14.02;;;7.07;;
15996;SDS011;8103;51.340;12.326;2022-10-31T04:22:10;11.50;;;6.57;;
15996;SDS011;8103;51.340;12.326;2022-10-31T04:24:38;7.45;;;5.88;;
15996;SDS011;8103;51.340;12.326;2022-10-31T04:27:06;8.30;;;6.55;;
15996;SDS011;8103;51.340;12.326;2022-10-31T04:29:33;8.68;;;6.55;;
15996;SDS011;8103;51.340;12.326;2022-10-31T04:32:00;9.52;;;6.80;;
15996;SDS011;8103;51.340;12.326;2022-10-31T04:34:27;11.10;;;7.38;;
15996;SDS011;8103;51.340;12.326;2022-10-31T04:36:54;13.48;;;8.02;;
15996;SDS011;8103;51.340;12.326;2022-10-31T04:39:21;13.45;;;8.40;;
15996;SDS011;8103;51.340;12.326;2022-10-31T04:41:50;12.77;;;8.00;;
15996;SDS011;8103;51.340;12.326;2022-10-31T04:44:17;14.80;;;8.88;;
15996;SDS011;8103;51.340;12.326;2022-10-31T04:46:45;14.55;;;9.85;;
15996;SDS011;8103;51.340;12.326;2022-10-31T04:49:12;12.77;;;9.57;;
15996;SDS011;8103;51.340;12.326;2022-10-31T04:51:39;10.68;;;8.35;;
15996;SDS011;8103;51.340;12.326;2022-10-31T04:54:06;10.57;;;6.80;;
15996;SDS011;8103;51.340;12.326;2022-10-31T04:56:33;11.43;;;8.20;;
15996;SDS011;8103;51.340;12.326;2022-10-31T04:59:00;11.88;;;8.07;;
15996;SDS011;8103;51.340;12.326;2022-10-31T05:01:27;11.35;;;8.77;;
15996;SDS011;8103;51.340;12.326;2022-10-31T05:03:54;12.50;;;9.40;;
15996;SDS011;8103;51.340;12.326;2022-10-31T05:06:21;14.88;;;10.93;;
15996;SDS011;8103;51.340;12.326;2022-10-31T05:08:48;14.80;;;9.63;;
15996;SDS011;8103;51.340;12.326;2022-10-31T05:11:15;19.20;;;10.50;;
15996;SDS011;8103;51.340;12.326;2022-10-31T05:13:41;17.58;;;10.32;;
15996;SDS011;8103;51.340;12.326;2022-10-31T05:16:08;14.98;;;10.77;;
15996;SDS011;8103;51.340;12.326;2022-10-31T05:18:35;15.32;;;10.38;;
15996;SDS011;8103;51.340;12.326;2022-10-31T05:21:02;17.02;;;11.20;;
15996;SDS011;8103;51.340;12.326;2022-10-31T05:23:29;17.48;;;10.80;;
15996;SDS011;8103;51.340;12.326;2022-10-31T05:25:56;18.23;;;12.38;;
15996;SDS011;8103;51.340;12.326;2022-10-31T05:28:23;17.02;;;12.95;;
15996;SDS011;8103;51.340;12.326;2022-10-31T05:30:51;17.83;;;11.75;;
15996;SDS011;8103;51.340;12.326;2022-10-31T05:33:18;21.13;;;12.40;;
15996;SDS011;8103;51.340;12.326;2022-10-31T05:35:45;17.45;;;13.60;;
15996;SDS011;8103;51.340;12.326;2022-10-31T05:38:12;15.65;;;10.85;;
15996;SDS011;8103;51.340;12.326;2022-10-31T05:40:39;16.67;;;10.52;;
15996;SDS011;8103;51.340;12.326;2022-10-31T05:43:05;15.57;;;10.70;;
15996;SDS011;8103;51.340;12.326;2022-10-31T05:45:33;14.63;;;11.05;;
15996;SDS011;8103;51.340;12.326;2022-10-31T05:48:00;15.48;;;10.70;;
15996;SDS011;8103;51.340;12.326;2022-10-31T05:50:29;13.65;;;10.50;;
15996;SDS011;8103;51.340;12.326;2022-10-31T05:52:59;13.63;;;10.57;;
15996;SDS011;8103;51.340;12.326;2022-10-31T05:55:30;14.05;;;10.80;;
15996;SDS011;8103;51.340;12.326;2022-10-31T05:57:58;14.90;;;10.00;;
15996;SDS011;8103;51.340;12.326;2022-10-31T06:00:26;15.70;;;9.73;;
15996;SDS011;8103;51.340;12.326;2022-10-31T06:03:00;14.10;;;8.32;;
15996;SDS011;8103;51.340;12.326;2022-10-31T06:05:30;11.65;;;8.82;;
15996;SDS011;8103;51.340;12.326;2022-10-31T06:07:58;12.60;;;8.55;;
15996;SDS011;8103;51.340;12.326;2022-10-31T06:10:26;14.13;;;8.75;;
15996;SDS011;8103;51.340;12.326;2022-10-31T06:12:53;14.55;;;8.57;;
15996;SDS011;8103;51.340;12.326;2022-10-31T06:15:20;13.63;;;8.30;;
15996;SDS011;8103;51.340;12.326;2022-10-31T06:18:03;10.85;;;7.90;;
15996;SDS011;8103;51.340;12.326;2022-10-31T06:20:32;11.30;;;7.63;;
15996;SDS011;8103;51.340;12.326;2022-10-31T06:23:00;9.90;;;7.53;;
15996;SDS011;8103;51.340;12.326;2022-10-31T06:25:28;6.80;;;6.15;;
15996;SDS011;8103;51.340;12.326;2022-10-31T06:27:55;13.45;;;7.93;;
15996;SDS011;8103;51.340;12.326;2022-10-31T06:30:23;8.98;;;6.93;;
15996;SDS011;8103;51.340;12.326;2022-10-31T06:32:50;12.77;;;6.78;;
15996;SDS011;8103;51.340;12.326;2022-10-31T06:35:17;11.07;;;6.93;;
15996;SDS011;8103;51.340;12.326;2022-10-31T06:37:51;10.82;;;7.10;;
15996;SDS011;8103;51.340;12.326;2022-10-31T06:40:21;11.70;;;7.40;;
15996;SDS011;8103;51.340;12.326;2022-10-31T06:43:01;10.95;;;7.60;;
15996;SDS011;8103;51.340;12.326;2022-10-31T06:45:28;8.98;;;6.70;;
15996;SDS011;8103;51.340;12.326;2022-10-31T06:47:55;12.70;;;8.70;;
15996;SDS011;8103;51.340;12.326;2022-10-31T06:50:43;13.50;;;7.55;;
15996;SDS011;8103;51.340;12.326;2022-10-31T06:53:10;8.52;;;7.40;;
15996;SDS011;8103;51.340;12.326;2022-10-31T06:55:40;12.45;;;8.68;;
15996;SDS011;8103;51.340;12.326;2022-10-31T06:58:10;9.88;;;8.18;;
15996;SDS011;8103;51.340;12.326;2022-10-31T07:00:37;8.68;;;7.47;;
15996;SDS011;8103;51.340;12.326;2022-10-31T07:03:06;11.70;;;8.43;;
15996;SDS011;8103;51.340;12.326;2022-10-31T07:05:37;7.90;;;7.05;;
15996;SDS011;8103;51.340;12.326;2022-10-31T07:08:05;11.13;;;8.57;;
15996;SDS011;8103;51.340;12.326;2022-10-31T07:10:36;10.32;;;8.57;;
15996;SDS011;8103;51.340;12.326;2022-10-31T07:13:06;12.65;;;9.48;;
15996;SDS011;8103;51.340;12.326;2022-10-31T07:15:41;12.40;;;10.10;;
15996;SDS011;8103;51.340;12.326;2022-10-31T07:18:10;12.23;;;8.18;;
15996;SDS011;8103;51.340;12.326;2022-10-31T07:20:38;14.57;;;7.93;;
15996;SDS011;8103;51.340;12.326;2022-10-31T07:23:05;7.47;;;6.05;;
15996;SDS011;8103;51.340;12.326;2022-10-31T07:25:35;9.90;;;6.53;;
15996;SDS011;8103;51.340;12.326;2022-10-31T07:28:02;11.93;;;6.82;;
15996;SDS011;8103;51.340;12.326;2022-10-31T07:30:29;10.55;;;7.00;;
15996;SDS011;8103;51.340;12.326;2022-10-31T07:32:56;7.60;;;5.82;;
15996;SDS011;8103;51.340;12.326;2022-10-31T07:35:25;11.43;;;8.07;;
15996;SDS011;8103;51.340;12.326;2022-10-31T07:37:55;11.27;;;7.45;;
15996;SDS011;8103;51.340;12.326;2022-10-31T07:40:23;10.68;;;6.70;;
15996;SDS011;8103;51.340;12.326;2022-10-31T07:42:51;8.07;;;6.28;;
15996;SDS011;8103;51.340;12.326;2022-10-31T07:45:19;9.05;;;5.22;;
15996;SDS011;8103;51.340;12.326;2022-10-31T07:47:48;9.38;;;6.85;;
15996;SDS011;8103;51.340;12.326;2022-10-31T07:50:19;11.35;;;6.20;;
15996;SDS011;8103;51.340;12.326;2022-10-31T07:52:59;9.93;;;6.05;;
15996;SDS011;8103;51.340;12.326;2022-10-31T07:55:32;6.75;;;5.88;;
15996;SDS011;8103;51.340;12.326;2022-10-31T07:58:04;9.38;;;6.15;;
15996;SDS011;8103;51.340;12.326;2022-10-31T08:00:40;8.88;;;5.45;;
15996;SDS011;8103;51.340;12.326;2022-10-31T08:03:13;6.95;;;5.65;;
15996;SDS011;8103;51.340;12.326;2022-10-31T08:05:43;9.52;;;6.20;;
15996;SDS011;8103;51.340;12.326;2022-10-31T08:08:12;8.80;;;5.65;;
15996;SDS011;8103;51.340;12.326;2022-10-31T08:10:41;6.43;;;5.13;;
15996;SDS011;8103;51.340;12.326;2022-10-31T08:13:12;8.10;;;6.15;;
15996;SDS011;8103;51.340;12.326;2022-10-31T08:15:40;7.72;;;5.32;;
15996;SDS011;8103;51.340;12.326;2022-10-31T08:18:12;8.88;;;5.47;;
15996;SDS011;8103;51.340;12.326;2022-10-31T08:20:40;11.00;;;6.88;;
15996;SDS011;8103;51.340;12.326;2022-10-31T08:23:10;8.68;;;5.32;;
15996;SDS011;8103;51.340;12.326;2022-10-31T08:25:38;8.90;;;6.43;;
15996;SDS011;8103;51.340;12.326;2022-10-31T08:28:06;7.45;;;5.57;;
15996;SDS011;8103;51.340;12.326;2022-10-31T08:30:38;12.68;;;6.45;;
15996;SDS011;8103;51.340;12.326;2022-10-31T08:33:11;6.65;;;5.45;;
15996;SDS011;8103;51.340;12.326;2022-10-31T08:35:44;8.95;;;5.85;;
15996;SDS011;8103;51.340;12.326;2022-10-31T08:38:13;10.00;;;5.97;;
15996;SDS011;8103;51.340;12.326;2022-10-31T08:40:40;6.53;;;5.63;;
15996;SDS011;8103;51.340;12.326;2022-10-31T08:45:42;6.90;;;4.50;;
15996;SDS011;8103;51.340;12.326;2022-10-31T08:48:11;6.82;;;5.63;;
15996;SDS011;8103;51.340;12.326;2022-10-31T08:50:40;9.07;;;5.85;;
15996;SDS011;8103;51.340;12.326;2022-10-31T08:53:13;7.53;;;5.20;;
15996;SDS011;8103;51.340;12.326;2022-10-31T08:55:44;9.50;;;5.40;;
15996;SDS011;8103;51.340;12.326;2022-10-31T08:58:13;10.77;;;5.75;;
15996;SDS011;8103;51.340;12.326;2022-10-31T09:00:43;11.20;;;6.47;;
15996;SDS011;8103;51.340;12.326;2022-10-31T09:03:13;14.45;;;6.60;;
15996;SDS011;8103;51.340;12.326;2022-10-31T09:05:48;21.85;;;8.60;;
15996;SDS011;8103;51.340;12.326;2022-10-31T09:08:16;12.20;;;7.63;;
15996;SDS011;8103;51.340;12.326;2022-10-31T09:10:43;11.25;;;6.50;;
15996;SDS011;8103;51.340;12.326;2022-10-31T09:13:12;18.83;;;10.50;;
15996;SDS011;8103;51.340;12.326;2022-10-31T09:15:44;10.95;;;6.72;;
15996;SDS011;8103;51.340;12.326;2022-10-31T09:18:14;13.38;;;7.13;;
15996;SDS011;8103;51.340;12.326;2022-10-31T09:20:44;16.52;;;7.57;;
15996;SDS011;8103;51.340;12.326;2022-10-31T09:23:17;10.40;;;7.85;;
15996;SDS011;8103;51.340;12.326;2022-10-31T09:25:51;13.48;;;8.90;;
15996;SDS011;8103;51.340;12.326;2022-10-31T09:28:21;12.40;;;7.22;;
15996;SDS011;8103;51.340;12.326;2022-10-31T09:30:53;12.07;;;7.80;;
15996;SDS011;8103;51.340;12.326;2022-10-31T09:33:24;13.65;;;7.60;;
15996;SDS011;8103;51.340;12.326;2022-10-31T09:35:53;12.43;;;8.57;;
15996;SDS011;8103;51.340;12.326;2022-10-31T09:38:21;15.27;;;11.48;;
15996;SDS011;8103;51.340;12.326;2022-10-31T09:47:12;17.25;;;10.77;;
15996;SDS011;8103;51.340;12.326;2022-10-31T09:50:25;19.63;;;13.18;;
15996;SDS011;8103;51.340;12.326;2022-10-31T09:53:00;14.48;;;11.15;;
15996;SDS011;8103;51.340;12.326;2022-10-31T09:55:39;22.02;;;15.35;;
15996;SDS011;8103;51.340;12.326;2022-10-31T09:58:18;28.20;;;17.83;;
15996;SDS011;8103;51.340;12.326;2022-10-31T10:00:54;17.88;;;11.77;;
15996;SDS011;8103;51.340;12.326;2022-10-31T10:03:31;16.52;;;12.10;;
15996;SDS011;8103;51.340;12.326;2022-10-31T10:06:19;18.10;;;12.45;;
15996;SDS011;8103;51.340;12.326;2022-10-31T10:08:53;17.08;;;13.35;;
15996;SDS011;8103;51.340;12.326;2022-10-31T10:14:32;15.95;;;13.05;;
15996;SDS011;8103;51.340;12.326;2022-10-31T10:17:35;15.68;;;9.25;;
15996;SDS011;8103;51.340;12.326;2022-10-31T10:20:18;12.30;;;8.38;;
15996;SDS011;8103;51.340;12.326;2022-10-31T10:26:41;16.55;;;11.95;;
15996;SDS011;8103;51.340;12.326;2022-10-31T10:29:16;11.95;;;8.30;;
15996;SDS011;8103;51.340;12.326;2022-10-31T10:32:05;21.63;;;13.38;;
15996;SDS011;8103;51.340;12.326;2022-10-31T10:35:07;13.15;;;10.00;;
15996;SDS011;8103;51.340;12.326;2022-10-31T10:37:48;15.18;;;11.32;;
15996;SDS011;8103;51.340;12.326;2022-10-31T10:40:25;27.25;;;17.23;;
15996;SDS011;8103;51.340;12.326;2022-10-31T10:45:50;20.08;;;12.75;;
15996;SDS011;8103;51.340;12.326;2022-10-31T10:49:12;18.00;;;12.27;;
15996;SDS011;8103;51.340;12.326;2022-10-31T10:58:00;16.10;;;12.10;;
15996;SDS011;8103;51.340;12.326;2022-10-31T11:00:42;20.98;;;13.82;;
15996;SDS011;8103;51.340;12.326;2022-10-31T11:03:13;20.67;;;15.13;;
15996;SDS011;8103;51.340;12.326;2022-10-31T11:05:52;19.88;;;16.05;;
15996;SDS011;8103;51.340;12.326;2022-10-31T11:08:25;28.02;;;17.70;;
15996;SDS011;8103;51.340;12.326;2022-10-31T11:13:46;20.60;;;14.68;;
15996;SDS011;8103;51.340;12.326;2022-10-31T11:16:31;16.42;;;12.77;;
15996;SDS011;8103;51.340;12.326;2022-10-31T11:19:27;18.02;;;14.20;;
15996;SDS011;8103;51.340;12.326;2022-10-31T11:21:54;30.00;;;20.95;;
15996;SDS011;8103;51.340;12.326;2022-10-31T11:24:39;27.77;;;15.65;;
15996;SDS011;8103;51.340;12.326;2022-10-31T11:27:15;17.27;;;14.35;;
15996;SDS011;8103;51.340;12.326;2022-10-31T11:29:52;17.58;;;12.57;;
15996;SDS011;8103;51.340;12.326;2022-10-31T11:32:30;20.45;;;16.20;;
15996;SDS011;8103;51.340;12.326;2022-10-31T11:34:58;22.98;;;15.57;;
15996;SDS011;8103;51.340;12.326;2022-10-31T11:37:30;23.58;;;15.80;;
15996;SDS011;8103;51.340;12.326;2022-10-31T11:40:03;26.15;;;18.50;;
15996;SDS011;8103;51.340;12.326;2022-10-31T11:42:37;18.20;;;13.98;;
15996;SDS011;8103;51.340;12.326;2022-10-31T11:45:16;24.45;;;16.05;;
15996;SDS011;8103;51.340;12.326;2022-10-31T11:47:56;23.92;;;14.48;;
15996;SDS011;8103;51.340;12.326;2022-10-31T11:53:12;24.40;;;16.65;;
15996;SDS011;8103;51.340;12.326;2022-10-31T11:55:48;20.10;;;14.55;;
15996;SDS011;8103;51.340;12.326;2022-10-31T11:58:54;21.38;;;15.65;;
15996;SDS011;8103;51.340;12.326;2022-10-31T12:01:25;21.98;;;15.95;;
15996;SDS011;8103;51.340;12.326;2022-10-31T12:04:00;19.55;;;14.95;;
15996;SDS011;8103;51.340;12.326;2022-10-31T12:06:37;22.38;;;13.98;;
15996;SDS011;8103;51.340;12.326;2022-10-31T12:09:18;19.88;;;13.90;;
15996;SDS011;8103;51.340;12.326;2022-10-31T12:30:34;22.77;;;14.55;;
15996;SDS011;8103;51.340;12.326;2022-10-31T12:33:58;20.52;;;14.32;;
15996;SDS011;8103;51.340;12.326;2022-10-31T12:36:49;23.48;;;15.52;;
15996;SDS011;8103;51.340;12.326;2022-10-31T12:45:30;28.20;;;17.95;;
15996;SDS011;8103;51.340;12.326;2022-10-31T12:48:32;23.50;;;17.80;;
15996;SDS011;8103;51.340;12.326;2022-10-31T13:00:28;16.88;;;12.00;;
15996;SDS011;8103;51.340;12.326;2022-10-31T13:03:03;17.80;;;13.38;;
15996;SDS011;8103;51.340;12.326;2022-10-31T13:06:03;19.25;;;13.15;;
15996;SDS011;8103;51.340;12.326;2022-10-31T13:11:34;20.30;;;14.57;;
15996;SDS011;8103;51.340;12.326;2022-10-31T13:14:27;20.77;;;14.40;;
15996;SDS011;8103;51.340;12.326;2022-10-31T13:17:40;26.05;;;14.45;;
15996;SDS011;8103;51.340;12.326;2022-10-31T13:23:16;32.92;;;18.73;;
15996;SDS011;8103;51.340;12.326;2022-10-31T13:26:18;24.58;;;17.60;;
15996;SDS011;8103;51.340;12.326;2022-10-31T13:29:27;20.92;;;14.75;;
15996;SDS011;8103;51.340;12.326;2022-10-31T13:32:00;23.75;;;16.95;;
15996;SDS011;8103;51.340;12.326;2022-10-31T13:34:36;28.17;;;17.30;;
15996;SDS011;8103;51.340;12.326;2022-10-31T13:40:27;19.52;;;13.57;;
15996;SDS011;8103;51.340;12.326;2022-10-31T13:45:56;23.27;;;14.27;;
15996;SDS011;8103;51.340;12.326;2022-10-31T13:48:33;20.67;;;13.43;;
15996;SDS011;8103;51.340;12.326;2022-10-31T13:51:09;29.95;;;18.77;;
15996;SDS011;8103;51.340;12.326;2022-10-31T13:56:32;25.45;;;17.85;;
15996;SDS011;8103;51.340;12.326;2022-10-31T13:59:04;17.50;;;13.35;;
15996;SDS011;8103;51.340;12.326;2022-10-31T14:01:34;21.20;;;15.63;;
15996;SDS011;8103;51.340;12.326;2022-10-31T14:10:02;22.30;;;15.27;;
15996;SDS011;8103;51.340;12.326;2022-10-31T14:12:47;22.23;;;16.27;;
15996;SDS011;8103;51.340;12.326;2022-10-31T14:15:19;20.05;;;14.77;;
15996;SDS011;8103;51.340;12.326;2022-10-31T14:22:58;28.02;;;18.00;;
15996;SDS011;8103;51.340;12.326;2022-10-31T14:25:39;24.17;;;15.90;;
15996;SDS011;8103;51.340;12.326;2022-10-31T14:28:31;24.52;;;17.55;;
15996;SDS011;8103;51.340;12.326;2022-10-31T14:31:01;22.75;;;16.17;;
15996;SDS011;8103;51.340;12.326;2022-10-31T14:33:29;21.48;;;15.43;;
15996;SDS011;8103;51.340;12.326;2022-10-31T14:36:09;27.10;;;17.63;;
15996;SDS011;8103;51.340;12.326;2022-10-31T14:38:56;20.00;;;14.27;;
15996;SDS011;8103;51.340;12.326;2022-10-31T14:42:00;17.05;;;13.27;;
15996;SDS011;8103;51.340;12.326;2022-10-31T14:48:08;26.65;;;18.13;;
15996;SDS011;8103;51.340;12.326;2022-10-31T14:51:00;21.58;;;15.65;;
15996;SDS011;8103;51.340;12.326;2022-10-31T14:53:46;25.13;;;17.60;;
15996;SDS011;8103;51.340;12.326;2022-10-31T14:56:21;23.17;;;15.23;;
15996;SDS011;8103;51.340;12.326;2022-10-31T14:58:55;23.85;;;14.60;;
15996;SDS011;8103;51.340;12.326;2022-10-31T15:01:35;21.55;;;15.88;;
15996;SDS011;8103;51.340;12.326;2022-10-31T15:04:16;23.23;;;16.33;;
15996;SDS011;8103;51.340;12.326;2022-10-31T15:10:18;24.00;;;16.67;;
15996;SDS011;8103;51.340;12.326;2022-10-31T15:12:53;23.40;;;15.98;;
15996;SDS011;8103;51.340;12.326;2022-10-31T15:18:13;29.08;;;17.10;;
15996;SDS011;8103;51.340;12.326;2022-10-31T15:20:54;26.67;;;17.30;;
15996;SDS011;8103;51.340;12.326;2022-10-31T15:23:24;22.33;;;16.35;;
15996;SDS011;8103;51.340;12.326;2022-10-31T15:25:58;25.88;;;17.83;;
15996;SDS011;8103;51.340;12.326;2022-10-31T15:28:28;28.00;;;18.63;;
15996;SDS011;8103;51.340;12.326;2022-10-31T15:30:55;23.80;;;18.45;;
15996;SDS011;8103;51.340;12.326;2022-10-31T15:33:29;24.08;;;18.17;;
15996;SDS011;8103;51.340;12.326;2022-10-31T15:36:17;28.75;;;18.65;;
15996;SDS011;8103;51.340;12.326;2022-10-31T15:38:52;32.00;;;20.98;;
15996;SDS011;8103;51.340;12.326;2022-10-31T15:41:24;25.67;;;18.48;;
15996;SDS011;8103;51.340;12.326;2022-10-31T15:44:14;28.38;;;21.80;;
15996;SDS011;8103;51.340;12.326;2022-10-31T15:46:52;32.53;;;22.05;;
15996;SDS011;8103;51.340;12.326;2022-10-31T15:49:36;31.13;;;19.90;;
15996;SDS011;8103;51.340;12.326;2022-10-31T15:52:12;29.33;;;19.90;;
15996;SDS011;8103;51.340;12.326;2022-10-31T15:55:16;35.20;;;22.70;;
15996;SDS011;8103;51.340;12.326;2022-10-31T15:57:50;32.33;;;22.88;;
15996;SDS011;8103;51.340;12.326;2022-10-31T16:05:45;34.42;;;23.95;;
15996;SDS011;8103;51.340;12.326;2022-10-31T16:08:25;36.22;;;22.45;;
15996;SDS011;8103;51.340;12.326;2022-10-31T16:11:14;35.13;;;22.88;;
15996;SDS011;8103;51.340;12.326;2022-10-31T16:13:54;29.75;;;20.73;;
15996;SDS011;8103;51.340;12.326;2022-10-31T16:16:28;34.30;;;22.92;;
15996;SDS011;8103;51.340;12.326;2022-10-31T16:19:05;29.95;;;19.77;;
15996;SDS011;8103;51.340;12.326;2022-10-31T16:21:52;36.58;;;22.75;;
15996;SDS011;8103;51.340;12.326;2022-10-31T16:24:52;32.72;;;21.65;;
15996;SDS011;8103;51.340;12.326;2022-10-31T16:27:28;31.88;;;22.10;;
15996;SDS011;8103;51.340;12.326;2022-10-31T16:30:00;31.67;;;21.48;;
15996;SDS011;8103;51.340;12.326;2022-10-31T16:32:53;33.08;;;21.23;;
15996;SDS011;8103;51.340;12.326;2022-10-31T16:35:38;31.30;;;21.92;;
15996;SDS011;8103;51.340;12.326;2022-10-31T16:38:05;30.63;;;20.45;;
15996;SDS011;8103;51.340;12.326;2022-10-31T16:40:34;34.47;;;22.25;;
15996;SDS011;8103;51.340;12.326;2022-10-31T16:43:04;35.80;;;23.60;;
15996;SDS011;8103;51.340;12.326;2022-10-31T16:45:42;31.95;;;22.25;;
15996;SDS011;8103;51.340;12.326;2022-10-31T16:48:15;34.70;;;22.50;;
15996;SDS011;8103;51.340;12.326;2022-10-31T16:50:48;30.83;;;20.50;;
15996;SDS011;8103;51.340;12.326;2022-10-31T16:53:16;30.08;;;21.63;;
15996;SDS011;8103;51.340;12.326;2022-10-31T16:58:16;43.20;;;25.58;;
15996;SDS011;8103;51.340;12.326;2022-10-31T17:00:49;35.60;;;26.52;;
15996;SDS011;8103;51.340;12.326;2022-10-31T17:03:20;36.08;;;24.17;;
15996;SDS011;8103;51.340;12.326;2022-10-31T17:05:47;37.10;;;24.52;;
15996;SDS011;8103;51.340;12.326;2022-10-31T17:08:14;41.00;;;27.92;;
15996;SDS011;8103;51.340;12.326;2022-10-31T17:10:42;36.00;;;26.23;;
15996;SDS011;8103;51.340;12.326;2022-10-31T17:13:15;41.72;;;26.63;;
15996;SDS011;8103;51.340;12.326;2022-10-31T17:15:47;41.80;;;26.33;;
15996;SDS011;8103;51.340;12.326;2022-10-31T17:18:20;42.67;;;26.65;;
15996;SDS011;8103;51.340;12.326;2022-10-31T17:20:56;40.03;;;26.10;;
15996;SDS011;8103;51.340;12.326;2022-10-31T17:23:27;36.97;;;24.17;;
15996;SDS011;8103;51.340;12.326;2022-10-31T17:25:55;32.17;;;22.30;;
15996;SDS011;8103;51.340;12.326;2022-10-31T17:28:22;35.35;;;21.52;;
15996;SDS011;8103;51.340;12.326;2022-10-31T17:30:52;33.63;;;22.35;;